Nevis, Minnesota
Current Conditions -  °F | °C
As of 7:53 PM on Thursday 18 Dec 2014 (Local Time) from KPKD Reporting Station
Overcast Overcast  
Wind Chill:   Ceiling: 6500
Heat Index: 18°   Visibility: 10mi
Dew Point: 14°   Wind: 9mph
Humidity: 84%   Direction: 150°SSE
Pressure: 30.17"   Gusts: NA
Location:  46.97°N, 94.84°W
Report Text: KPKD 190153Z AUTO 15008KT 10SM OVC065 M08/M10 A3017 RMK AO2 SLP251 T10781100
Loading
Personal Weather Stations






























Interactive Weather Map New forecast layout! Learn more

10-Day Weather Forecast

Advertisements
Track Severe Weather on mobile